Airfield :
LOGIN :

Register | Disclaimer

   EN    FR    IT 

 










Legend :    VFR   Marginal VFR   IFR   Intensive IFR   Very Intensive IFR
Visi :
Ceiling :
>= 8 km
>= 3000ft
5 to 8 km
1000 to 3000 ft
1500m to 5 km
500 to 1000 ft
800 to 1500m
200 to 500 ft
< 800m
< 200 ft
Symbols :   Thunderstorms  Fog  Heavy snow  Heavy precipitations  Wind > 20 kt
SIGMETs :     Misc.  Thunderstorms  Icing  Turbulence  Mountain Waves  Volcanic Ashes







- Airport Elevation : 138 ft
- IATA code : BIO


LEBB - Bilbao

CURRENT METAR :
  • 180330Z AUTO 11004KT 080V140 9999 FEW041/// 05/05 Q1021

EXPIRED METARs :
  • 180300Z AUTO 10003KT 080V140 9999 FEW041 04/04 Q1021
  • 180230Z AUTO 09003KT CAVOK 05/05 Q1021
  • 180200Z AUTO 09003KT 060V140 9999 FEW037/// 05/05 Q1022
  • 180130Z AUTO VRB01KT 9999 SCT036/// BKN044/// 06/05 Q1022
  • 180100Z AUTO 10004KT 070V130 9999 FEW036/// 06/05 Q1022

TAF TAF LEBB
Valid from the 18 at 00:00 until the 19 at 00:00 UTC


172300Z 1800/1824 VRB04KT 9999 SCT030 TX11/1814Z TN03/1807Z
TEMPO 1800/1803 RA
PROB40
TEMPO 1809/1818 30010KT
PROB30
TEMPO 1816/1822 RA
No reported NOTAMs for that airfield.



MET'MAP, your aeronautical weather chart ! - Copyright ORBIFLY December 2007 - Disclaimer

ORBIFLY MET'MAP TEAM :

Programming & Development : Alexandra Zaïnal
Concept & Development : Baudouin d'Aumeries
Co-Development & Prog : Marc-Olivier Méhu
Technical & hardware support : Manuel Goepfert

Contact : metmap@orbifly.com




SOURCES & CREDITS :

   NOAA